CTFK1: Cottonwood Rv Cotwd Falls

                                SHEF ID:       CTFK1     Cottonwood Rv Cotwd Falls
STATION TYPE:

PRECIP STAGE RIV-FLOW BAT-LOAD
in ft cfs volt
Ccp-Rev Ccp-Rev Ccp-Rev Ccp-Rev
(America/Chicago)
08/28 00:00 0.00 8.20 213 12.44
08/28 01:00 0.00 8.20 213 12.42
08/28 02:00 0.01 8.20 213 12.42
08/28 03:00 0.02 8.16 207 12.40
08/28 04:00 0.12 8.21 214 12.39
08/28 05:00 0.01 8.22 216 12.38
08/28 06:00 0.00 8.21 214 12.36
08/28 07:00 0.01 8.21 214 12.32
08/28 08:00 0.06 8.23 217 12.30
08/28 09:00 0.00 8.27 223 12.32
08/28 10:00 0.00 8.33 231 12.52
08/28 11:00 0.00 8.35 234 12.82
08/28 12:00 0.00 8.40 241 12.99
08/28 13:00 0.00 8.40 241 13.06
08/28 14:00 0.00 8.39 240 13.59
08/28 15:00 0.00 8.39 240 13.38
08/28 16:00 0.00 8.40 241 13.26
08/28 17:00 0.00 8.42 244 13.19
08/28 18:00 0.00 8.47 252 13.17
08/28 19:00 0.00 8.52 259 13.13
08/28 20:00 0.00 8.55 264 12.98
08/28 21:00 0.00 8.58 268 12.63
08/28 22:00 0.00 8.59 270 12.50
08/28 23:00 0.00 8.60 271 12.47
Data processed at Fri 29Aug2025 04:06 GMT

Parsing this webpage?

Checkout our new Data API! CWMSDataAPI (CDA)

Timeseries IDs (TSIDs)

TSIDs used from left to right in the data table
COTF.Precip-Inc.Total.1Hour.1Hour.Ccp-Rev
COTF.Stage.Inst.1Hour.0.Ccp-Rev
COTF.Flow.Inst.1Hour.0.Ccp-Rev
COTF.Volt-Battery Load.Inst.1Hour.0.Ccp-Rev

                            

All information presented herein is the property of the government of the United States of America and may be revised or deleted at any time without prior notice. Dissemination of this information without the expressed written consent of the Public Affairs Office, Tulsa District U.S. Army Corps of Engineers is strictly prohibited. These data are gathered electronically and, as presented, have NOT undergone any form of quality control. These data are NOT guaranteed to be valid or correct.